Aérodrome :
LOGIN :

S'inscrire | Disclaimer

   EN    FR    IT 

 










Légende :    VFR   VFR Marginal   IFR   IFR Intensif   IFR Très Intensif
Visi : 
Plafond : 
>= 8 km
>= 3000ft
5 à 8 km
1000 à 3000 ft
1500m à 5 km
500 à 1000 ft
800 à 1500m
200 à 500 ft
< 800m
< 200 ft
Symboles :   Orages  Brouillard  Fortes neiges  Fortes précipitations  Vent > 20 kt
SIGMETs :   Divers  Orages  Givrage  Turbulence  Onde Orograph.  Cendres Volcan.







- Altitude de l'aérodrome : 459 ft
- Code IATA : CER
- Voir les cartes d'approche


LFRC - Cherbourg / Maupertus

DERNIER METAR :
  • 210730Z AUTO 29006KT 3100 BR VV/// 17/16 Q1021 TEMPO BKN005 BECMG 9999 NSW

METARs EXPIRÉS :
  • 210700Z AUTO 30008KT 0500 R28/1000U FG VV/// 17/16 Q1021 TEMPO 3000 BR BKN002
  • 210230Z AUTO 27005KT 9999 FEW003 OVC027 18/17 Q1021
  • 210630Z AUTO 23004KT 200V260 3700 -RA BR BKN005 BKN010 OVC015 18/17 Q1021 NOSIG
  • 210600Z AUTO 23003KT 3700 BR SCT008 BKN016 OVC023 18/17 Q1021 TEMPO BKN002
  • 210530Z AUTO 23004KT 9999 FEW003 OVC022 17/17 Q1021 TEMPO 3000 BR BKN002
  • 210500Z AUTO 22003KT 9999 FEW004 OVC024 17/17 Q1021

TAF TAF LFRC
Valide du 21 à 06h jusqu'au 21 à 15h UTC


210500Z 2106/2115 24005KT 9999 BKN030
TEMPO 2106/2110 BKN005
PROB30
TEMPO 2106/2109 3000 BR BKN002
BECMG 2112/2114 30010KT
Pas de NOTAMs connus pour ce terrain.



MET'MAP, la Météo Aéronautique d'un coup d'oeil ! - Copyright ORBIFLY Décembre 2007 - Disclaimer

ORBIFLY MET'MAP TEAM :

Programmation & Développement : Alexandra Zaïnal
Conception & Développement : Baudouin d'Aumeries
Co-Programmation & Développement : Marc-Olivier Méhu
Soutien technique & logistique : Manuel Goepfert

Contact : metmap@orbifly.com




SOURCES & CREDITS :

   NOAA